首页
METAR-TAF:

METAR-TAF

机场 :

伊瓜苏, 巴拉那州, 巴西

纬度: 25-31S, 经度: 054-35W, 海拔: 180米

当前天气观测

该预报发布于25分钟前的21:00 UTC
风速3节,风向
温度 16°C
湿度 94%
气压 1024 hPa
能见度10公里或以上
1500米以下无云,无积雨云

METAR: SBFI 182100Z 17003KT CAVOK 16/15 Q1024

时间: 18:25 (21:25 UTC)

预报

该预报发布于6小时和25分钟前的15:00 UTC
预报有效从18日的 18点(UTC)到 19日的 18点(UTC)
风速5节,风向南转南东
能见度10公里或以上
1500米以下无云,无积雨云
几率 40%
从 19日的 09点(UTC)到 19日的 12点(UTC)
能見度: 0600
多云层高于200英尺
成为
从 19日的 12点(UTC)到 19日的 14点(UTC)
风速4节,风向东转东南
能见度10公里或以上
多云层高于1500英尺
成为
在之间 1和点(UTC)
风速7节,风向东北
能见度10公里或以上
1500米以下无云,无积雨云

TAF: SBFI 181500Z 1818/1918 16005KT CAVOK TN07/1909Z TX22/1918Z PROB40 1909/1912 0600 FG BKN002 BECMG 1912/1914 12004KT 9999 BKN015 BECMG 1 914/1916 05007KT CAVOK RMK PDJ

超过4000个机场的气象观测和天气预报(METAR&TAF报告)。

可查询的气象台以黄色和红色小点在地图上表示。

将鼠标移到小点上方,可查看气象台名称。

然后点击查看天气观测和预报。

如需切换地图:点击带黑十字的绿色按钮放大地图;点击带横线的绿色按钮缩小地图;或者点击绿色箭头查看邻近地区的地图。


METAR-TAF: